Time;durP1;ratioP1;P1;durP2;ratioP2;P2;SDS_P1;SDS_P2;PMS_P1;PMS_P2;Temp;Humidity;BMP_temperature;BMP_pressure;BME280_temperature;BME280_humidity;BME280_pressure;Samples;Min_cycle;Max_cycle;Signal;HPM_P1;HPM_P2
2022/12/01 00:02:15;;;;;;;20.73;13.43;;;6.50;99.90;;;;;;5031780;28;20214;-68
2022/12/01 00:04:41;;;;;;;18.53;11.90;;;6.30;99.90;;;;;;5032735;28;20687;-68
2022/12/01 00:07:07;;;;;;;16.43;11.70;;;6.30;99.90;;;;;;5027128;28;20285;-68
2022/12/01 00:12:17;;;;;;;20.48;13.30;;;6.70;99.90;;;;;;5047073;28;20197;-66
2022/12/01 00:14:42;;;;;;;22.80;13.83;;;6.30;99.90;;;;;;5040433;28;20577;-67
2022/12/01 00:17:08;;;;;;;20.90;13.50;;;6.20;99.90;;;;;;5037684;28;20710;-67
2022/12/01 00:19:34;;;;;;;23.37;14.90;;;6.30;99.90;;;;;;5031551;28;20673;-68
2022/12/01 00:21:59;;;;;;;17.40;12.60;;;6.20;99.90;;;;;;5042773;28;20264;-66
2022/12/01 00:24:25;;;;;;;17.53;12.30;;;6.20;99.90;;;;;;5033006;28;20268;-66
2022/12/01 00:26:51;;;;;;;20.27;13.47;;;6.30;99.90;;;;;;5035517;28;20174;-69
2022/12/01 00:29:16;;;;;;;18.57;12.93;;;6.30;99.90;;;;;;5042138;28;20642;-67
2022/12/01 00:31:42;;;;;;;19.20;12.30;;;6.30;99.90;;;;;;5046686;28;20205;-67
2022/12/01 00:34:22;;;;;;;22.63;14.57;;;6.10;99.90;;;;;;5032400;28;20236;-66
2022/12/01 00:36:48;;;;;;;20.90;13.98;;;5.70;99.90;;;;;;5028034;28;20193;-66
2022/12/01 00:39:13;;;;;;;21.07;14.33;;;5.80;99.90;;;;;;5031179;28;20197;-67
2022/12/01 00:41:39;;;;;;;20.90;13.77;;;6.00;99.90;;;;;;5032055;28;20221;-67
2022/12/01 00:44:04;;;;;;;20.20;14.97;;;5.80;99.90;;;;;;5031562;28;20292;-66
2022/12/01 00:46:30;;;;;;;20.60;14.17;;;5.80;99.90;;;;;;5030712;28;20569;-66
2022/12/01 00:48:56;;;;;;;20.63;13.17;;;5.80;99.90;;;;;;5030974;28;20236;-69
2022/12/01 00:51:21;;;;;;;21.17;14.03;;;6.00;99.90;;;;;;5030905;28;20232;-67
2022/12/01 00:53:47;;;;;;;19.30;13.63;;;6.20;99.90;;;;;;5032211;28;20214;-68
2022/12/01 00:56:13;;;;;;;15.83;12.00;;;6.10;99.90;;;;;;5028264;28;20196;-68
2022/12/01 00:58:39;;;;;;;22.15;14.25;;;6.00;99.90;;;;;;5039717;28;20190;-66
2022/12/01 01:01:05;;;;;;;19.77;13.07;;;6.10;99.90;;;;;;5030916;28;20223;-66
2022/12/01 01:03:32;;;;;;;17.80;12.20;;;6.20;99.90;;;;;;5030052;28;20218;-67
2022/12/01 01:06:07;;;;;;;18.17;12.85;;;5.90;99.90;;;;;;5031466;28;20997;-66
2022/12/01 01:08:33;;;;;;;19.83;13.55;;;5.90;99.90;;;;;;5030846;28;20273;-66
2022/12/01 01:11:00;;;;;;;18.10;12.77;;;6.10;99.90;;;;;;5031685;28;20257;-66
2022/12/01 01:13:26;;;;;;;20.52;12.85;;;5.80;99.90;;;;;;5031338;28;20565;-66
2022/12/01 01:16:01;;;;;;;18.45;11.63;;;6.00;99.90;;;;;;5030586;28;20723;-69
2022/12/01 01:18:27;;;;;;;17.08;12.68;;;6.00;99.90;;;;;;5040153;28;20246;-65
2022/12/01 01:20:58;;;;;;;19.17;11.82;;;6.00;99.90;;;;;;5030598;28;20186;-65
2022/12/01 01:23:24;;;;;;;18.20;13.27;;;6.10;99.90;;;;;;5030379;28;20210;-66
2022/12/01 01:25:50;;;;;;;18.95;11.80;;;5.90;99.90;;;;;;5030029;28;20189;-67
2022/12/01 01:28:17;;;;;;;19.20;12.40;;;5.70;99.90;;;;;;5029375;28;20186;-68
2022/12/01 01:30:42;;;;;;;18.20;11.60;;;6.10;99.90;;;;;;5030654;28;20678;-68
2022/12/01 01:33:09;;;;;;;17.33;12.30;;;5.70;99.90;;;;;;5030636;28;20659;-68
2022/12/01 01:35:34;;;;;;;20.30;12.60;;;5.70;99.90;;;;;;5031411;28;20205;-67
2022/12/01 01:38:00;;;;;;;21.93;14.13;;;5.80;99.90;;;;;;5044204;28;20838;-67
2022/12/01 01:40:25;;;;;;;20.20;13.83;;;5.90;99.90;;;;;;5029009;28;20244;-67
2022/12/01 01:42:51;;;;;;;16.70;12.60;;;5.60;99.90;;;;;;5030211;28;20178;-68
2022/12/01 01:45:27;;;;;;;20.83;14.77;;;5.80;99.90;;;;;;5030889;28;20724;-67
2022/12/01 01:47:55;;;;;;;21.45;13.25;;;5.90;99.90;;;;;;5028648;28;20445;-68
2022/12/01 01:50:25;;;;;;;18.77;13.13;;;5.80;99.90;;;;;;5029643;28;20189;-67
2022/12/01 01:52:58;;;;;;;21.55;13.40;;;5.80;99.90;;;;;;5032029;28;20188;-66
2022/12/01 01:55:23;;;;;;;19.10;13.27;;;5.70;99.90;;;;;;5030811;28;20197;-68
2022/12/01 01:57:49;;;;;;;19.60;13.90;;;5.50;99.90;;;;;;5029359;28;20566;-67
2022/12/01 02:00:19;;;;;;;18.37;13.30;;;5.90;99.90;;;;;;5028427;28;20856;-69
2022/12/01 02:02:46;;;;;;;17.27;13.00;;;5.90;99.90;;;;;;5029336;28;20433;-67
2022/12/01 02:05:24;;;;;;;19.50;12.80;;;6.10;99.90;;;;;;5044920;28;20568;-67
2022/12/01 02:07:52;;;;;;;19.40;12.85;;;5.90;99.90;;;;;;5029843;28;20239;-68
2022/12/01 02:10:22;;;;;;;19.33;12.90;;;5.50;99.90;;;;;;5035148;28;20185;-67
2022/12/01 02:13:16;;;;;;;19.02;12.90;;;5.70;99.90;;;;;;5029885;28;20273;-66
2022/12/01 02:15:45;;;;;;;18.92;12.48;;;5.90;99.90;;;;;;5029391;28;20186;-66
2022/12/01 02:18:13;;;;;;;18.40;12.27;;;5.70;99.90;;;;;;5028963;28;20190;-66
2022/12/01 02:21:00;;;;;;;18.35;13.23;;;5.90;99.90;;;;;;5028166;28;20330;-70
2022/12/01 02:23:56;;;;;;;16.60;12.02;;;6.00;99.90;;;;;;5029530;28;20242;-67
2022/12/01 02:27:01;;;;;;;20.15;12.73;;;6.10;99.90;;;;;;5030325;28;20189;-68
2022/12/01 02:30:02;;;;;;;17.90;12.93;;;6.00;99.90;;;;;;5023252;28;20193;-67
2022/12/01 02:32:50;;;;;;;14.98;10.80;;;5.90;99.90;;;;;;5024500;28;20212;-68
2022/12/01 02:35:18;;;;;;;16.65;12.05;;;5.90;99.90;;;;;;5029683;28;20617;-69
2022/12/01 02:37:48;;;;;;;21.70;12.60;;;5.90;99.90;;;;;;5027490;28;20190;-68
2022/12/01 02:40:29;;;;;;;17.83;12.35;;;6.40;99.90;;;;;;5029764;28;20280;-67
2022/12/01 02:43:37;;;;;;;17.88;12.05;;;6.10;99.90;;;;;;5038384;28;20189;-66
2022/12/01 02:46:11;;;;;;;16.63;12.95;;;6.00;99.90;;;;;;5029136;28;20189;-68
2022/12/01 02:48:41;;;;;;;21.25;13.13;;;5.90;99.90;;;;;;5030393;28;20737;-65
2022/12/01 02:51:12;;;;;;;16.75;12.05;;;6.10;99.90;;;;;;5028827;28;20189;-66
2022/12/01 02:53:38;;;;;;;19.05;12.98;;;5.90;99.90;;;;;;5028227;28;20321;-66
2022/12/01 02:56:08;;;;;;;19.00;13.37;;;5.80;99.90;;;;;;5029976;28;20933;-65
2022/12/01 02:58:34;;;;;;;21.48;12.80;;;5.60;99.90;;;;;;5028910;28;20189;-66
2022/12/01 03:01:21;;;;;;;21.47;14.10;;;5.40;99.90;;;;;;5029632;28;20562;-68
2022/12/01 03:04:02;;;;;;;21.58;13.32;;;5.50;99.90;;;;;;5025378;28;20596;-66
2022/12/01 03:06:35;;;;;;;19.17;12.23;;;5.40;99.90;;;;;;5028761;28;20654;-67
2022/12/01 03:09:16;;;;;;;18.17;12.70;;;5.20;99.90;;;;;;5032309;28;20188;-66
2022/12/01 03:12:02;;;;;;;19.52;12.48;;;5.50;99.90;;;;;;5033074;28;20196;-65
2022/12/01 03:14:44;;;;;;;16.67;12.10;;;5.60;99.90;;;;;;5031920;28;20219;-66
2022/12/01 03:17:16;;;;;;;16.92;11.98;;;5.50;99.90;;;;;;5033101;28;20196;-67
2022/12/01 03:19:48;;;;;;;15.52;10.98;;;5.50;99.90;;;;;;5031166;28;20702;-67
2022/12/01 03:22:23;;;;;;;16.52;11.90;;;5.40;99.90;;;;;;5032837;28;20654;-64
2022/12/01 03:24:52;;;;;;;17.27;11.80;;;5.30;99.90;;;;;;5027139;28;20271;-65
2022/12/01 03:27:25;;;;;;;18.48;12.10;;;5.20;99.90;;;;;;5031760;28;20182;-65
2022/12/01 03:29:55;;;;;;;17.20;11.48;;;5.30;99.90;;;;;;5028481;28;20239;-65
2022/12/01 03:32:31;;;;;;;15.40;11.70;;;5.10;99.90;;;;;;5038749;28;20192;-65
2022/12/01 03:35:09;;;;;;;18.75;11.93;;;5.20;99.90;;;;;;5044800;28;20209;-65
2022/12/01 03:38:04;;;;;;;18.67;12.77;;;5.20;99.90;;;;;;5031547;28;20289;-64
2022/12/01 03:40:32;;;;;;;19.77;12.52;;;5.30;99.90;;;;;;5007818;28;20199;-65
2022/12/01 03:43:06;;;;;;;16.25;12.15;;;5.50;99.90;;;;;;5038036;28;20185;-65
2022/12/01 03:45:59;;;;;;;19.00;12.60;;;5.20;99.90;;;;;;5041171;28;20189;-64
2022/12/01 03:48:26;;;;;;;17.13;12.43;;;5.50;99.90;;;;;;5049422;28;20182;-64
2022/12/01 03:50:52;;;;;;;18.17;12.15;;;5.50;99.90;;;;;;5042563;28;20189;-64
2022/12/01 03:53:26;;;;;;;17.17;12.00;;;5.30;99.90;;;;;;5033737;28;20740;-64
2022/12/01 03:56:00;;;;;;;18.80;12.82;;;5.10;99.90;;;;;;5035180;28;20228;-66
2022/12/01 03:58:43;;;;;;;17.70;12.63;;;5.30;99.90;;;;;;5032265;28;20198;-64
2022/12/01 04:01:08;;;;;;;18.98;12.93;;;5.30;99.90;;;;;;5025924;28;20653;-66
2022/12/01 04:03:34;;;;;;;17.40;11.77;;;5.40;99.90;;;;;;5032158;28;20217;-64
2022/12/01 04:06:00;;;;;;;19.03;12.13;;;5.50;99.90;;;;;;5030748;28;20444;-65
2022/12/01 04:08:26;;;;;;;17.57;12.07;;;5.50;99.90;;;;;;5031083;28;20708;-65
2022/12/01 04:10:51;;;;;;;19.10;12.23;;;5.60;99.90;;;;;;5031853;28;20201;-65
2022/12/01 04:13:24;;;;;;;18.57;12.83;;;5.30;99.90;;;;;;5032349;28;20254;-66
2022/12/01 04:15:51;;;;;;;18.25;12.88;;;5.50;99.90;;;;;;5031840;28;20187;-66
2022/12/01 04:18:17;;;;;;;19.80;12.45;;;5.50;99.90;;;;;;5019926;28;20563;-65
2022/12/01 04:20:45;;;;;;;20.23;11.77;;;5.30;99.90;;;;;;5036695;28;20263;-65
2022/12/01 04:23:58;;;;;;;17.98;12.70;;;5.40;99.90;;;;;;5025163;28;20198;-65
2022/12/01 04:26:01;;;;;;;19.98;12.20;;;5.50;99.90;;;;;;5033365;28;20189;-65
2022/12/01 04:28:27;;;;;;;17.80;12.77;;;5.40;99.90;;;;;;5033899;28;20178;-65
2022/12/01 04:30:53;;;;;;;19.50;13.17;;;5.10;99.90;;;;;;5031838;28;20852;-66
2022/12/01 04:33:18;;;;;;;17.27;11.90;;;5.30;99.90;;;;;;5038220;28;20196;-65
2022/12/01 04:35:44;;;;;;;17.80;12.30;;;5.40;99.90;;;;;;5049993;28;20184;-65
2022/12/01 04:38:10;;;;;;;19.07;12.10;;;5.00;99.90;;;;;;5023316;28;20186;-65
2022/12/01 04:40:37;;;;;;;18.73;12.50;;;5.40;99.90;;;;;;5040980;28;20526;-65
2022/12/01 04:43:03;;;;;;;19.23;12.95;;;5.50;99.90;;;;;;5046083;28;20700;-65
2022/12/01 04:45:29;;;;;;;20.65;13.15;;;4.70;99.90;;;;;;5034139;28;20287;-66
2022/12/01 04:47:54;;;;;;;16.90;12.07;;;5.50;99.90;;;;;;5035080;28;20184;-66
2022/12/01 04:50:21;;;;;;;20.00;12.60;;;5.50;99.90;;;;;;5051214;28;20260;-65
2022/12/01 04:52:46;;;;;;;21.73;12.40;;;5.50;99.90;;;;;;5036904;28;20184;-65
2022/12/01 04:55:14;;;;;;;18.77;12.27;;;5.40;99.90;;;;;;5032083;28;20209;-65
2022/12/01 04:57:40;;;;;;;19.10;12.43;;;5.40;99.90;;;;;;5029022;28;20190;-65
2022/12/01 05:00:11;;;;;;;17.05;12.40;;;5.40;99.90;;;;;;5030270;28;20228;-66
2022/12/01 05:02:42;;;;;;;18.25;11.85;;;5.60;99.90;;;;;;5033390;28;20183;-66
2022/12/01 05:05:09;;;;;;;18.42;12.82;;;5.70;99.90;;;;;;5041305;28;20238;-67
2022/12/01 05:07:35;;;;;;;18.20;11.60;;;5.70;99.90;;;;;;5028558;28;20178;-66
2022/12/01 05:10:01;;;;;;;20.37;13.20;;;5.30;99.90;;;;;;5030315;28;20658;-66
2022/12/01 05:12:26;;;;;;;19.30;12.37;;;5.40;99.90;;;;;;5028146;28;20693;-66
2022/12/01 05:14:52;;;;;;;18.30;12.40;;;5.10;99.90;;;;;;5030575;28;20467;-66
2022/12/01 05:17:18;;;;;;;19.37;13.40;;;5.50;99.90;;;;;;5027170;28;20235;-66
2022/12/01 05:22:27;;;;;;;19.92;12.88;;;5.50;99.90;;;;;;5030957;28;20243;-66
2022/12/01 05:24:53;;;;;;;21.90;14.33;;;5.70;99.90;;;;;;5027458;28;20209;-66
2022/12/01 05:27:19;;;;;;;19.03;12.80;;;5.70;99.90;;;;;;5028333;28;20192;-66
2022/12/01 05:29:44;;;;;;;18.30;12.83;;;5.60;99.90;;;;;;5031390;28;20219;-66
2022/12/01 05:32:10;;;;;;;18.30;13.07;;;5.40;99.90;;;;;;5026158;28;20200;-68
2022/12/01 05:34:36;;;;;;;19.87;12.57;;;5.50;99.90;;;;;;5036965;28;20686;-66
2022/12/01 05:37:01;;;;;;;17.63;12.60;;;5.60;99.90;;;;;;5027239;28;21116;-66
2022/12/01 05:39:27;;;;;;;18.90;12.27;;;5.60;99.90;;;;;;5029896;28;20182;-65
2022/12/01 05:41:53;;;;;;;18.87;12.93;;;5.50;99.90;;;;;;5031265;28;20242;-65
2022/12/01 05:44:19;;;;;;;23.65;14.30;;;5.40;99.90;;;;;;5031315;28;20225;-66
2022/12/01 05:46:44;;;;;;;18.57;12.57;;;5.60;99.90;;;;;;5029282;28;20187;-67
2022/12/01 05:49:10;;;;;;;18.43;13.03;;;5.50;99.90;;;;;;5028952;28;20189;-66
2022/12/01 05:51:36;;;;;;;21.00;13.80;;;5.40;99.90;;;;;;5032075;28;20566;-66
2022/12/01 05:54:02;;;;;;;22.07;14.60;;;5.50;99.90;;;;;;5045350;28;20209;-66
2022/12/01 05:56:27;;;;;;;18.40;12.87;;;5.40;99.90;;;;;;5033179;28;20189;-66
2022/12/01 05:58:53;;;;;;;20.83;14.20;;;5.40;99.90;;;;;;5028952;28;20458;-66
2022/12/01 06:01:18;;;;;;;20.97;14.70;;;5.10;99.90;;;;;;5026689;28;20194;-66
2022/12/01 06:03:44;;;;;;;19.10;13.70;;;5.00;99.90;;;;;;5026504;28;20699;-66
2022/12/01 06:06:10;;;;;;;21.70;13.60;;;5.20;99.90;;;;;;5027988;28;20554;-66
2022/12/01 06:08:35;;;;;;;20.90;13.70;;;5.40;99.90;;;;;;5022598;28;20654;-67
2022/12/01 06:11:01;;;;;;;21.10;14.50;;;5.50;99.90;;;;;;5028695;28;20277;-66
2022/12/01 06:13:27;;;;;;;18.83;12.73;;;5.50;99.90;;;;;;5025719;28;20678;-67
2022/12/01 06:16:01;;;;;;;20.73;13.60;;;5.00;99.90;;;;;;5027071;28;20183;-66
2022/12/01 06:18:30;;;;;;;20.10;13.88;;;5.30;99.90;;;;;;5027092;28;20189;-66
2022/12/01 06:20:56;;;;;;;22.42;14.90;;;5.50;99.90;;;;;;5027942;28;21516;-63
2022/12/01 06:23:21;;;;;;;19.63;13.97;;;5.60;99.90;;;;;;5022265;28;20210;-63
2022/12/01 06:25:47;;;;;;;21.90;14.90;;;5.40;99.90;;;;;;5029293;28;20658;-64
2022/12/01 06:28:13;;;;;;;25.90;15.90;;;5.50;99.90;;;;;;5027170;28;20272;-63
2022/12/01 06:30:38;;;;;;;22.63;14.17;;;5.40;99.90;;;;;;5028906;28;20193;-64
2022/12/01 06:33:05;;;;;;;21.83;15.17;;;5.50;99.90;;;;;;5020382;28;20441;-68
2022/12/01 06:35:30;;;;;;;22.63;14.95;;;5.40;99.90;;;;;;5030081;28;20185;-67
2022/12/01 06:37:56;;;;;;;22.33;15.30;;;5.50;99.90;;;;;;5027472;28;20200;-68
2022/12/01 06:40:22;;;;;;;22.37;14.23;;;4.90;99.90;;;;;;5052197;28;20216;-70
2022/12/01 06:42:47;;;;;;;25.83;16.37;;;5.60;99.90;;;;;;5031772;28;20276;-68
2022/12/01 06:45:13;;;;;;;21.87;14.40;;;5.30;99.90;;;;;;5029822;28;20233;-68
2022/12/01 06:47:39;;;;;;;22.77;15.50;;;5.20;99.90;;;;;;5026928;28;20239;-68
2022/12/01 06:50:07;;;;;;;20.53;13.23;;;5.10;99.90;;;;;;5029252;28;20209;-68
2022/12/01 06:52:33;;;;;;;21.70;14.05;;;5.00;99.90;;;;;;5032188;28;20878;-66
2022/12/01 06:54:59;;;;;;;21.05;14.82;;;5.50;99.90;;;;;;5028786;28;20238;-64
2022/12/01 06:57:25;;;;;;;27.33;16.53;;;5.30;99.90;;;;;;5028742;28;20586;-64
2022/12/01 06:59:51;;;;;;;31.57;18.00;;;5.10;99.90;;;;;;5031220;28;20435;-64
2022/12/01 07:02:16;;;;;;;20.20;13.23;;;4.90;99.90;;;;;;5029874;28;20457;-67
2022/12/01 07:04:42;;;;;;;20.33;15.27;;;5.20;99.90;;;;;;5027721;28;20249;-67
2022/12/01 07:07:08;;;;;;;22.73;14.73;;;5.10;99.90;;;;;;5027838;28;20186;-66
2022/12/01 07:09:34;;;;;;;20.52;13.93;;;5.30;99.90;;;;;;5044425;28;20189;-64
2022/12/01 07:12:00;;;;;;;20.17;14.20;;;5.30;99.90;;;;;;5047526;28;20177;-64
2022/12/01 07:14:26;;;;;;;23.30;14.23;;;5.50;99.90;;;;;;5037603;28;20213;-64
2022/12/01 07:16:52;;;;;;;21.33;13.75;;;5.50;99.90;;;;;;5026314;28;20257;-64
2022/12/01 07:19:18;;;;;;;21.77;15.63;;;5.50;99.90;;;;;;5028956;28;20369;-64
2022/12/01 07:21:44;;;;;;;21.30;14.77;;;5.50;99.90;;;;;;5025811;28;20184;-66
2022/12/01 07:24:11;;;;;;;30.53;13.50;;;5.50;99.90;;;;;;5027458;28;20217;-63
2022/12/01 07:26:39;;;;;;;20.85;14.38;;;5.40;99.90;;;;;;5028773;28;20225;-65
2022/12/01 07:29:04;;;;;;;19.55;13.70;;;6.00;99.90;;;;;;5029199;28;20201;-68
2022/12/01 07:31:30;;;;;;;23.03;14.13;;;5.60;99.90;;;;;;5027952;28;20193;-66
2022/12/01 07:33:56;;;;;;;21.77;15.40;;;5.50;99.90;;;;;;5025400;28;20222;-64
2022/12/01 07:36:21;;;;;;;22.83;15.63;;;5.10;99.90;;;;;;5043051;28;20194;-65
2022/12/01 07:38:47;;;;;;;22.00;14.10;;;5.50;99.90;;;;;;5025688;28;20180;-65
2022/12/01 07:41:15;;;;;;;21.80;15.30;;;7.60;99.90;;;;;;5024972;28;20193;-65
2022/12/01 07:43:41;;;;;;;24.58;16.35;;;5.40;99.90;;;;;;5027824;28;20221;-64
2022/12/01 07:46:12;;;;;;;28.60;20.05;;;5.50;99.90;;;;;;5024487;28;20202;-66
2022/12/01 07:48:39;;;;;;;18.85;13.45;;;5.60;99.90;;;;;;5017576;28;20635;-65
2022/12/01 07:51:06;;;;;;;21.00;14.13;;;5.70;99.90;;;;;;5021550;28;20212;-64
2022/12/01 07:53:32;;;;;;;21.55;13.77;;;5.50;99.90;;;;;;5040384;28;20257;-66
2022/12/01 07:55:59;;;;;;;22.90;14.00;;;5.90;99.90;;;;;;5028251;28;20285;-67
2022/12/01 07:58:25;;;;;;;25.13;15.40;;;5.60;99.90;;;;;;5030573;28;20683;-68
2022/12/01 08:00:51;;;;;;;19.63;14.40;;;5.80;99.90;;;;;;5029739;28;20327;-67
2022/12/01 08:03:17;;;;;;;24.02;15.55;;;6.00;99.90;;;;;;5030104;28;20421;-68
2022/12/01 08:05:42;;;;;;;21.30;14.17;;;5.90;99.90;;;;;;5027001;28;20193;-69
2022/12/01 08:08:08;;;;;;;20.63;14.80;;;5.90;99.90;;;;;;5044822;28;20306;-68
2022/12/01 08:10:34;;;;;;;22.80;16.07;;;5.90;99.90;;;;;;5043255;28;20182;-68
2022/12/01 08:12:59;;;;;;;22.17;14.90;;;5.50;99.90;;;;;;5030878;28;20300;-68
2022/12/01 08:15:25;;;;;;;24.47;14.80;;;5.40;99.90;;;;;;5030654;28;21035;-63
2022/12/01 08:17:51;;;;;;;20.53;15.30;;;5.40;99.90;;;;;;5028866;28;20243;-64
2022/12/01 08:20:16;;;;;;;22.63;14.60;;;5.60;99.90;;;;;;5028413;28;20229;-65
2022/12/01 08:22:42;;;;;;;19.70;12.90;;;5.60;99.90;;;;;;5026724;28;20194;-66
2022/12/01 08:25:08;;;;;;;18.60;13.10;;;5.20;99.90;;;;;;5028444;28;20206;-63
2022/12/01 08:27:34;;;;;;;24.27;16.30;;;5.50;99.90;;;;;;5029203;28;20838;-64
2022/12/01 08:30:00;;;;;;;18.75;13.50;;;5.70;99.90;;;;;;5023940;28;20207;-63
2022/12/01 08:32:25;;;;;;;20.60;13.60;;;5.50;99.90;;;;;;5023342;28;20287;-64
2022/12/01 08:34:51;;;;;;;21.63;14.77;;;5.60;99.90;;;;;;5030496;28;20210;-62
2022/12/01 08:37:16;;;;;;;18.53;13.10;;;5.60;99.90;;;;;;5029272;28;20209;-62
2022/12/01 08:39:42;;;;;;;21.30;14.40;;;5.60;99.90;;;;;;5029728;28;20192;-64
2022/12/01 08:42:08;;;;;;;21.50;14.50;;;5.80;99.90;;;;;;5032584;28;20673;-63
2022/12/01 08:44:33;;;;;;;24.40;14.10;;;6.00;99.90;;;;;;5030540;28;20266;-63
2022/12/01 08:46:59;;;;;;;18.20;13.30;;;5.60;99.90;;;;;;5022059;28;20197;-64
2022/12/01 08:49:25;;;;;;;21.40;14.90;;;6.00;99.90;;;;;;5028628;28;20190;-65
2022/12/01 08:51:51;;;;;;;20.85;14.60;;;5.90;99.90;;;;;;5029402;28;20205;-63
2022/12/01 08:54:16;;;;;;;24.73;14.77;;;5.70;99.90;;;;;;5027070;28;20206;-64
2022/12/01 08:56:44;;;;;;;18.30;13.60;;;5.90;99.90;;;;;;5029488;28;20438;-63
2022/12/01 08:59:09;;;;;;;21.08;14.40;;;5.90;99.90;;;;;;5028381;28;20659;-63
2022/12/01 09:01:50;;;;;;;20.83;14.07;;;5.70;99.90;;;;;;5029417;28;20192;-64
2022/12/01 09:04:20;;;;;;;19.80;13.50;;;5.90;99.90;;;;;;5027945;28;20217;-64
2022/12/01 09:06:47;;;;;;;20.75;13.60;;;5.90;99.90;;;;;;5026876;28;20201;-64
2022/12/01 09:09:25;;;;;;;21.80;13.70;;;5.70;99.90;;;;;;5027788;28;20185;-65
2022/12/01 09:11:51;;;;;;;18.90;14.88;;;6.00;99.90;;;;;;5025806;28;20700;-65
2022/12/01 09:14:18;;;;;;;22.03;14.30;;;5.60;99.90;;;;;;5027091;28;20301;-66
2022/12/01 09:16:46;;;;;;;20.92;14.07;;;5.70;99.90;;;;;;5029045;28;20467;-66
2022/12/01 09:19:13;;;;;;;23.27;14.85;;;5.90;99.90;;;;;;5029089;28;20315;-66
2022/12/01 09:21:39;;;;;;;23.55;14.55;;;5.80;99.90;;;;;;5023135;28;20344;-67
2022/12/01 09:24:06;;;;;;;22.05;15.10;;;5.60;99.90;;;;;;5024213;28;20584;-66
2022/12/01 09:26:34;;;;;;;19.23;15.20;;;5.80;99.90;;;;;;5029393;28;20256;-67
2022/12/01 09:29:05;;;;;;;22.10;13.88;;;5.90;99.90;;;;;;5029118;28;20241;-67
2022/12/01 09:31:31;;;;;;;23.08;14.40;;;5.80;99.90;;;;;;5035840;28;20203;-65
2022/12/01 09:34:00;;;;;;;17.73;13.00;;;5.40;99.90;;;;;;5030872;28;20205;-66
2022/12/01 09:36:26;;;;;;;21.27;14.10;;;5.60;99.90;;;;;;5027299;28;20444;-66
2022/12/01 09:38:52;;;;;;;23.42;15.07;;;5.70;99.90;;;;;;5025588;28;20181;-66
2022/12/01 09:41:23;;;;;;;23.63;13.93;;;5.50;99.90;;;;;;5029728;28;20194;-64
2022/12/01 09:44:20;;;;;;;19.40;13.48;;;5.40;99.90;;;;;;5029519;28;20475;-66
2022/12/01 09:46:52;;;;;;;22.80;14.15;;;5.70;99.90;;;;;;5006979;28;20555;-65
2022/12/01 09:49:34;;;;;;;20.27;13.30;;;5.80;99.90;;;;;;5030723;28;20276;-64
2022/12/01 09:51:59;;;;;;;20.25;13.75;;;5.60;99.90;;;;;;5026839;28;20245;-65
2022/12/01 09:54:27;;;;;;;21.80;15.03;;;5.60;99.90;;;;;;5025812;28;20248;-64
2022/12/01 09:56:54;;;;;;;21.13;13.85;;;5.80;99.90;;;;;;5027574;28;20243;-65
2022/12/01 09:59:26;;;;;;;17.65;13.55;;;5.90;99.90;;;;;;5024273;28;20189;-66
2022/12/01 10:01:58;;;;;;;19.48;13.80;;;5.80;99.90;;;;;;5030612;28;20735;-65
2022/12/01 10:04:39;;;;;;;21.95;14.45;;;6.00;99.90;;;;;;5031854;28;20216;-64
2022/12/01 10:07:30;;;;;;;21.98;14.23;;;6.10;99.90;;;;;;5025706;28;20225;-64
2022/12/01 10:09:58;;;;;;;19.45;13.68;;;6.10;99.90;;;;;;5028282;28;20684;-64
2022/12/01 10:12:32;;;;;;;18.13;13.02;;;6.20;99.90;;;;;;5029248;28;20193;-63
2022/12/01 10:15:29;;;;;;;17.33;13.02;;;6.20;99.90;;;;;;5028192;28;20198;-64
2022/12/01 10:17:57;;;;;;;23.05;14.57;;;6.10;99.90;;;;;;5020175;28;20205;-65
2022/12/01 10:20:45;;;;;;;19.10;13.75;;;5.90;99.90;;;;;;5027524;28;20666;-64
2022/12/01 10:23:13;;;;;;;18.98;14.63;;;5.70;99.90;;;;;;5023966;28;20297;-64
2022/12/01 10:25:56;;;;;;;19.55;13.75;;;5.80;99.90;;;;;;5037969;28;20220;-64
2022/12/01 10:28:57;;;;;;;18.98;13.77;;;5.80;99.90;;;;;;5026461;28;20486;-62
2022/12/01 10:31:41;;;;;;;23.30;13.90;;;5.80;99.90;;;;;;5004017;28;20206;-64
2022/12/01 10:34:15;;;;;;;19.33;14.35;;;6.20;99.90;;;;;;5031540;28;20208;-64
2022/12/01 10:36:41;;;;;;;18.23;12.95;;;6.20;99.90;;;;;;5024334;28;20541;-63
2022/12/01 10:39:18;;;;;;;21.40;14.60;;;6.30;99.90;;;;;;5031961;28;20190;-66
2022/12/01 10:41:46;;;;;;;20.88;14.40;;;6.00;99.90;;;;;;5024591;28;20505;-65
2022/12/01 10:44:12;;;;;;;21.65;14.40;;;6.10;99.90;;;;;;5021713;28;20217;-63
2022/12/01 10:46:52;;;;;;;20.00;13.60;;;5.90;99.90;;;;;;5024305;28;20228;-65
2022/12/01 10:49:18;;;;;;;18.73;13.45;;;6.30;99.90;;;;;;5033680;28;20181;-67
2022/12/01 10:51:54;;;;;;;25.52;17.13;;;6.10;99.90;;;;;;5031282;28;20262;-67
2022/12/01 10:54:22;;;;;;;19.33;13.05;;;6.10;99.90;;;;;;5041933;28;20844;-67
2022/12/01 10:56:54;;;;;;;17.02;13.60;;;6.40;99.90;;;;;;5029506;28;20631;-67
2022/12/01 10:59:34;;;;;;;22.05;13.50;;;6.20;99.90;;;;;;5023085;28;20197;-67
2022/12/01 11:02:02;;;;;;;20.70;14.07;;;6.20;99.90;;;;;;5027689;28;20188;-67
2022/12/01 11:04:43;;;;;;;19.40;12.93;;;6.10;99.90;;;;;;5019985;28;20279;-66
2022/12/01 11:07:18;;;;;;;24.30;15.27;;;6.30;99.90;;;;;;5024890;28;20808;-65
2022/12/01 11:09:47;;;;;;;22.13;14.30;;;6.30;99.90;;;;;;5026142;28;20280;-67
2022/12/01 11:12:16;;;;;;;16.98;12.48;;;6.30;99.90;;;;;;5030436;28;20188;-67
2022/12/01 11:14:49;;;;;;;19.50;13.95;;;6.30;99.90;;;;;;5028515;28;20245;-67
2022/12/01 11:17:38;;;;;;;19.92;13.18;;;6.70;99.90;;;;;;5019623;28;20187;-67
2022/12/01 11:20:23;;;;;;;18.90;13.13;;;6.00;99.90;;;;;;5020614;28;20566;-66
2022/12/01 11:22:48;;;;;;;19.38;13.63;;;6.10;99.90;;;;;;5025976;28;20623;-66
2022/12/01 11:25:20;;;;;;;18.07;13.67;;;6.20;99.90;;;;;;5026276;28;20297;-67
2022/12/01 11:27:51;;;;;;;18.70;12.98;;;6.30;99.90;;;;;;5022477;28;20548;-67
2022/12/01 11:30:25;;;;;;;20.40;14.23;;;6.20;99.90;;;;;;5023976;28;20185;-67
2022/12/01 11:32:58;;;;;;;20.65;14.23;;;5.70;99.90;;;;;;5030377;28;20185;-67
2022/12/01 11:35:29;;;;;;;18.38;13.80;;;6.30;99.90;;;;;;5031930;28;20222;-65
2022/12/01 11:37:59;;;;;;;23.00;14.07;;;6.20;99.90;;;;;;5031491;28;20284;-65
2022/12/01 11:40:31;;;;;;;19.15;13.45;;;6.20;99.90;;;;;;5027988;28;20194;-65
2022/12/01 11:43:00;;;;;;;19.90;13.25;;;5.80;99.90;;;;;;5030231;28;20201;-65
2022/12/01 11:45:44;;;;;;;19.27;13.07;;;6.20;99.90;;;;;;5034764;28;20300;-67
2022/12/01 11:48:15;;;;;;;19.08;12.38;;;6.10;99.90;;;;;;5031409;28;20284;-65
2022/12/01 11:50:43;;;;;;;19.08;14.98;;;6.30;99.90;;;;;;5020746;28;20647;-64
2022/12/01 11:53:31;;;;;;;20.40;13.45;;;6.20;99.90;;;;;;5044412;28;20645;-67
2022/12/01 11:56:27;;;;;;;18.85;12.93;;;6.20;99.90;;;;;;5032620;28;20317;-67
2022/12/01 11:59:09;;;;;;;20.40;14.05;;;6.50;99.90;;;;;;5031819;28;20182;-67
2022/12/01 12:01:37;;;;;;;19.00;12.60;;;6.20;99.90;;;;;;5026404;28;20190;-67
2022/12/01 12:04:18;;;;;;;15.50;11.95;;;6.50;99.90;;;;;;5026228;28;20222;-68
2022/12/01 12:07:03;;;;;;;20.23;13.73;;;6.50;99.90;;;;;;5043239;28;20588;-68
2022/12/01 12:09:35;;;;;;;19.25;13.45;;;6.40;99.90;;;;;;5031344;28;20185;-67
2022/12/01 12:12:06;;;;;;;19.27;13.40;;;6.80;99.90;;;;;;5029734;28;20554;-68
2022/12/01 12:15:09;;;;;;;19.58;12.45;;;6.60;99.90;;;;;;5033160;28;20696;-68
2022/12/01 12:18:20;;;;;;;21.17;14.20;;;6.70;99.90;;;;;;5019115;28;20198;-68
2022/12/01 12:21:10;;;;;;;19.17;13.05;;;6.40;99.90;;;;;;5025778;28;20193;-68
2022/12/01 12:23:47;;;;;;;18.20;12.73;;;6.70;99.90;;;;;;5031051;28;20582;-65
2022/12/01 12:26:36;;;;;;;20.38;13.07;;;6.60;99.90;;;;;;5029498;28;20265;-66
2022/12/01 12:29:05;;;;;;;20.95;12.55;;;6.90;99.90;;;;;;4999072;28;20203;-66
2022/12/01 12:31:37;;;;;;;15.25;11.60;;;6.60;99.90;;;;;;5030506;28;20685;-65
2022/12/01 12:34:29;;;;;;;15.95;11.75;;;6.70;99.90;;;;;;5026700;28;20309;-67
2022/12/01 12:37:15;;;;;;;20.20;13.32;;;6.90;99.90;;;;;;5026527;28;20179;-66
2022/12/01 12:40:07;;;;;;;19.10;13.35;;;6.80;99.90;;;;;;5034238;28;20276;-66
2022/12/01 12:42:57;;;;;;;17.75;13.18;;;6.80;99.90;;;;;;5034139;28;20202;-65
2022/12/01 12:45:32;;;;;;;20.10;12.05;;;6.70;99.90;;;;;;5029284;28;20240;-64
2022/12/01 12:48:20;;;;;;;19.90;13.13;;;6.70;99.90;;;;;;5027205;28;20572;-66
2022/12/01 12:51:00;;;;;;;17.10;12.20;;;6.90;99.90;;;;;;5027134;28;20190;-63
2022/12/01 12:53:39;;;;;;;20.05;13.98;;;6.90;99.90;;;;;;5030871;28;20224;-64
2022/12/01 12:56:09;;;;;;;19.08;13.10;;;7.00;99.90;;;;;;5030666;28;20194;-67
2022/12/01 12:58:57;;;;;;;19.75;12.85;;;6.70;99.90;;;;;;5038888;28;20267;-65
2022/12/01 13:01:32;;;;;;;19.40;12.93;;;6.50;99.90;;;;;;5027151;28;20178;-64